createdAt,value
2022-08-11T00:04:35.223Z,98372.1
2022-08-11T00:10:10.056Z,98378
2022-08-11T00:15:44.802Z,98381.3
2022-08-11T00:22:06.846Z,98390.5
2022-08-11T00:27:42.002Z,98382.9
2022-08-11T00:33:17.020Z,98385.5
2022-08-11T00:38:51.854Z,98394.6
2022-08-11T00:44:26.702Z,98387.7
2022-08-11T00:50:01.639Z,98391.9
2022-08-11T00:55:37.381Z,98398
2022-08-11T01:01:14.859Z,98408.3
2022-08-11T01:06:50.054Z,98414.6
2022-08-11T01:12:24.838Z,98427.5
2022-08-11T01:18:21.439Z,98427.8
2022-08-11T01:24:01.730Z,98431.1
2022-08-11T01:29:36.531Z,98432.3
2022-08-11T01:35:11.455Z,98441.7
2022-08-11T01:40:46.267Z,98443.5
2022-08-11T01:46:22.052Z,98436.1
2022-08-11T01:51:57.868Z,98430
2022-08-11T01:57:32.727Z,98426.7
2022-08-11T02:03:07.556Z,98420.4
2022-08-11T02:08:51.254Z,98421.6
2022-08-11T02:14:28.509Z,98416.7
2022-08-11T02:20:04.374Z,98427.2
2022-08-11T02:25:39.251Z,98425.7
2022-08-11T02:32:34.311Z,98426.3
2022-08-11T02:38:11.773Z,98416.9
2022-08-11T02:43:51.910Z,98416.8
2022-08-11T02:49:26.840Z,98418.3
2022-08-11T02:55:02.541Z,98420.7
2022-08-11T03:00:37.413Z,98415.2
2022-08-11T03:06:12.376Z,98412.2
2022-08-11T03:11:47.173Z,98406.4
2022-08-11T03:17:43.843Z,98406
2022-08-11T03:23:21.067Z,98399.9
2022-08-11T03:28:55.760Z,98396.8
2022-08-11T03:34:32.019Z,98397.9
2022-08-11T03:40:07.308Z,98393.5
2022-08-11T03:45:43.607Z,98388
2022-08-11T03:51:18.274Z,98384
2022-08-11T03:56:53.054Z,98379.5
2022-08-11T04:02:28.790Z,98381.9
2022-08-11T04:08:04.802Z,98383.7
2022-08-11T04:13:39.709Z,98384.8
2022-08-11T04:19:36.314Z,98389.1
2022-08-11T04:25:09.842Z,98396
2022-08-11T04:30:44.815Z,98394.9
2022-08-11T04:36:21.106Z,98394.2
2022-08-11T04:41:56.005Z,98387.3
2022-08-11T04:48:05.222Z,98392.4
2022-08-11T04:53:43.056Z,98387.2
2022-08-11T04:59:17.624Z,98389.7
2022-08-11T05:04:52.471Z,98390
2022-08-11T05:10:27.274Z,98388.4
2022-08-11T05:16:02.264Z,98389
2022-08-11T05:21:46.007Z,98383
2022-08-11T05:27:32.122Z,98376.2
2022-08-11T05:33:07.864Z,98375.9
2022-08-11T05:38:42.872Z,98378.8
2022-08-11T05:44:22.932Z,98379.1
2022-08-11T05:49:59.095Z,98380.6
2022-08-11T05:56:03.994Z,98383.6
2022-08-11T06:01:39.504Z,98389.9
2022-08-11T06:07:15.838Z,98385
2022-08-11T06:12:52.422Z,98389.7
2022-08-11T06:18:28.690Z,98393.1
2022-08-11T06:24:03.581Z,98396.6
2022-08-11T06:29:55.935Z,98396.3
2022-08-11T06:35:31.177Z,98394.2
2022-08-11T06:41:06.063Z,98388.2
2022-08-11T06:46:40.802Z,98387.2
2022-08-11T06:52:37.068Z,98389.6
2022-08-11T06:58:13.609Z,98397.1
2022-08-11T07:03:48.573Z,98406
2022-08-11T07:09:25.464Z,98407.1
2022-08-11T07:15:01.852Z,98416.5
2022-08-11T07:20:36.677Z,98424.4
2022-08-11T07:26:11.475Z,98428.5
2022-08-11T07:31:47.560Z,98428.6
2022-08-11T07:37:22.386Z,98443.1
2022-08-11T07:42:57.381Z,98460.6
2022-08-11T07:48:33.340Z,98477.6
2022-08-11T07:54:17.950Z,98483
2022-08-11T08:00:09.091Z,98482.5
2022-08-11T08:05:47.969Z,98476.2
2022-08-11T08:11:28.002Z,98464.1
2022-08-11T08:17:24.639Z,98444.8
2022-08-11T08:22:57.318Z,98430.6
2022-08-11T08:28:33.255Z,98424.5
2022-08-11T08:34:08.145Z,98434.7
2022-08-11T08:39:43.619Z,98429.2
2022-08-11T08:45:19.367Z,98432
2022-08-11T08:50:54.892Z,98437.4
2022-08-11T08:56:32.313Z,98438.9
2022-08-11T09:02:07.104Z,98432.3
2022-08-11T09:07:43.412Z,98425.1
2022-08-11T09:13:20.073Z,98419.1
2022-08-11T09:18:57.383Z,98422.2
2022-08-11T09:24:33.575Z,98418.7
2022-08-11T09:30:10.779Z,98408.8
2022-08-11T09:35:45.767Z,98401.9
2022-08-11T09:41:26.180Z,98396.2
2022-08-11T09:47:40.965Z,98398
2022-08-11T09:54:04.498Z,98386
2022-08-11T09:59:39.664Z,98382.2
2022-08-11T10:05:14.211Z,98376
2022-08-11T10:10:49.168Z,98368.1
2022-08-11T10:16:24.041Z,98360.6
2022-08-11T10:21:59.037Z,98351.7
2022-08-11T10:29:11.868Z,98351
2022-08-11T10:34:58.317Z,98345.1
2022-08-11T10:40:32.948Z,98336.1
2022-08-11T10:46:07.717Z,98329.2
2022-08-11T10:51:54.387Z,98320.5
2022-08-11T10:57:34.314Z,98319.1
2022-08-11T11:03:24.362Z,98309.2
2022-08-11T11:09:05.680Z,98306.1
2022-08-11T11:14:59.107Z,98304.9
2022-08-11T11:20:47.269Z,98296.7
2022-08-11T11:26:28.324Z,98293.8
2022-08-11T11:32:03.183Z,98291.6
2022-08-11T11:37:38.110Z,98290.4
2022-08-11T11:43:13.987Z,98286.1
2022-08-11T11:48:49.075Z,98280.4
2022-08-11T11:54:23.950Z,98280.6
2022-08-11T11:59:59.114Z,98277.1
2022-08-11T12:05:33.968Z,98272.5
2022-08-11T12:11:09.248Z,98266.6
2022-08-11T12:17:06.380Z,98263.3
2022-08-11T12:22:42.943Z,98258.1
2022-08-11T12:28:17.953Z,98251.5
2022-08-11T12:33:54.558Z,98250.5
2022-08-11T12:41:15.276Z,98247.7
2022-08-11T12:46:55.813Z,98248.3
2022-08-11T12:52:30.650Z,98242.3
2022-08-11T12:58:07.903Z,98240
2022-08-11T13:03:43.312Z,98235.8
2022-08-11T13:09:31.509Z,98227.9
2022-08-11T13:15:06.534Z,98223.4
2022-08-11T13:20:41.464Z,98220.6
2022-08-11T13:26:48.934Z,98206.4
2022-08-11T13:32:26.022Z,98213.9
2022-08-11T13:38:21.045Z,98200.9
2022-08-11T13:44:03.094Z,98206.5
2022-08-11T13:49:40.853Z,98196.6
2022-08-11T13:55:53.199Z,98190.9
2022-08-11T14:02:31.060Z,98188.9
2022-08-11T14:08:07.431Z,98183.7
2022-08-11T14:14:06.649Z,98166.7
2022-08-11T14:19:41.613Z,98175.1
2022-08-11T14:25:16.717Z,98167.1
2022-08-11T14:30:51.771Z,98159
2022-08-11T14:36:28.782Z,98152.8
2022-08-11T14:42:13.697Z,98149.2
2022-08-11T14:47:48.931Z,98147.8
2022-08-11T14:53:23.898Z,98146
2022-08-11T14:58:58.913Z,98147.7
2022-08-11T15:04:37.451Z,98139.4
2022-08-11T15:10:15.127Z,98136.1
2022-08-11T15:15:53.686Z,98135.3
2022-08-11T15:21:29.505Z,98127.1
2022-08-11T15:27:04.576Z,98130.6
2022-08-11T15:32:39.538Z,98130.5
2022-08-11T15:38:14.596Z,98124.7
2022-08-11T15:43:49.474Z,98132.7
2022-08-11T15:50:13.744Z,98129.2
2022-08-11T15:55:49.746Z,98122
2022-08-11T16:01:24.838Z,98130.4
2022-08-11T16:07:01.732Z,98123.8
2022-08-11T16:12:39.597Z,98128.1
2022-08-11T16:18:36.279Z,98118.6
2022-08-11T16:27:13.810Z,98116.9
2022-08-11T16:32:50.549Z,98107.5
2022-08-11T16:38:25.137Z,98102.8
2022-08-11T16:44:00.108Z,98099
2022-08-11T16:49:35.695Z,98093.7
2022-08-11T16:55:53.022Z,98095.2
2022-08-11T17:01:28.618Z,98097
2022-08-11T17:07:43.239Z,98094.4
2022-08-11T17:13:19.953Z,98088.2
2022-08-11T17:19:16.590Z,98090.4
2022-08-11T17:24:49.379Z,98088.1
2022-08-11T17:30:24.483Z,98087.4
2022-08-11T17:36:00.306Z,98089.3
2022-08-11T17:41:35.087Z,98090.6
2022-08-11T17:47:10.750Z,98084.9
2022-08-11T17:52:45.484Z,98091
2022-08-11T17:58:20.243Z,98099
2022-08-11T18:03:59.409Z,98107.4
2022-08-11T18:09:34.258Z,98117.3
2022-08-11T18:15:10.652Z,98122.8
2022-08-11T18:20:46.862Z,98130
2022-08-11T18:26:22.613Z,98144
2022-08-11T18:31:57.354Z,98152.6
2022-08-11T18:37:33.222Z,98152
2022-08-11T18:43:08.076Z,98151.8
2022-08-11T18:54:20.006Z,98148.9
2022-08-11T18:59:55.715Z,98155.9
2022-08-11T19:06:41.452Z,98156
2022-08-11T19:12:16.529Z,98160.4
2022-08-11T19:18:12.855Z,98161.2
2022-08-11T19:23:46.029Z,98165.1
2022-08-11T19:30:14.901Z,98171.3
2022-08-11T19:35:51.033Z,98174.4
2022-08-11T19:41:58.256Z,98180.9
2022-08-11T19:47:33.024Z,98184.8
2022-08-11T19:53:18.247Z,98185.4
2022-08-11T19:58:53.011Z,98192.9
2022-08-11T20:04:28.002Z,98197.3
2022-08-11T20:10:07.109Z,98204.6
2022-08-11T20:15:41.883Z,98201.9
2022-08-11T20:21:34.013Z,98208.2
2022-08-11T20:27:25.975Z,98216.7
2022-08-11T20:33:01.749Z,98217
2022-08-11T20:44:33.389Z,98223.6
2022-08-11T20:50:21.020Z,98225.3
2022-08-11T20:55:58.301Z,98224.5
2022-08-11T21:01:42.583Z,98225.6
2022-08-11T21:07:29.568Z,98222.9
2022-08-11T21:13:29.713Z,98221.8
2022-08-11T21:19:09.473Z,98212.9
2022-08-11T21:24:48.787Z,98211.9
2022-08-11T21:30:24.639Z,98211.8
2022-08-11T21:35:59.953Z,98222.3
2022-08-11T21:41:35.447Z,98235
2022-08-11T21:47:10.955Z,98242.7
2022-08-11T21:52:46.168Z,98246.9
2022-08-11T21:58:22.005Z,98249.9
2022-08-11T22:03:57.331Z,98260.5
2022-08-11T22:09:32.487Z,98266.2
2022-08-11T22:15:07.961Z,98270.7
2022-08-11T22:20:43.139Z,98275.6
2022-08-11T22:26:19.460Z,98282
2022-08-11T22:31:57.576Z,98280
2022-08-11T22:37:32.822Z,98277.1
2022-08-11T22:43:08.107Z,98293
2022-08-11T22:48:43.508Z,98286
2022-08-11T22:54:19.035Z,98286.5
2022-08-11T22:59:54.451Z,98287.2
2022-08-11T23:05:29.919Z,98284.9
2022-08-11T23:11:05.190Z,98287.1
2022-08-11T23:16:40.781Z,98302.5
2022-08-11T23:22:16.338Z,98310.4
2022-08-11T23:27:52.976Z,98312.8
2022-08-11T23:33:28.515Z,98313
2022-08-11T23:39:03.899Z,98314
2022-08-11T23:44:39.002Z,98315
2022-08-11T23:50:36.894Z,98319.8
2022-08-11T23:56:10.398Z,98315.1
